Time;durP1;ratioP1;P1;durP2;ratioP2;P2;SDS_P1;SDS_P2;PMS_P1;PMS_P2;Temp;Humidity;BMP_temperature;BMP_pressure;BME280_temperature;BME280_humidity;BME280_pressure;Samples;Min_cycle;Max_cycle;Signal;HPM_P1;HPM_P2
2022/08/04 04:06:07;;;;;;;3.13;2.90;;;20.10;99.90;;;;;;4999698;28;20837;-75
2022/08/04 04:08:51;;;;;;;2.67;2.47;;;20.00;99.90;;;;;;5001132;28;20406;-76
2022/08/04 04:11:34;;;;;;;5.50;2.73;;;19.90;99.90;;;;;;5001642;28;20395;-76
2022/08/04 04:14:25;;;;;;;3.63;2.70;;;19.90;99.90;;;;;;5005343;28;20413;-75
2022/08/04 04:17:16;;;;;;;3.10;2.90;;;19.80;99.90;;;;;;4974810;28;20439;-74
2022/08/04 04:20:14;;;;;;;3.17;2.97;;;19.70;99.90;;;;;;4974834;29;20393;-77
2022/08/04 04:23:14;;;;;;;3.67;2.67;;;19.70;99.90;;;;;;4941971;28;20460;-76
2022/08/04 04:25:52;;;;;;;2.70;2.50;;;19.70;99.90;;;;;;4972051;29;20409;-77
2022/08/04 04:28:51;;;;;;;2.53;2.33;;;19.80;99.90;;;;;;4983505;28;20430;-76
2022/08/04 04:31:28;;;;;;;3.17;2.67;;;19.80;99.90;;;;;;4974899;28;20944;-76
2022/08/04 04:34:30;;;;;;;2.50;2.40;;;19.80;99.90;;;;;;4975581;28;20426;-77
2022/08/04 04:37:23;;;;;;;2.70;2.50;;;19.70;99.90;;;;;;4976865;28;20409;-76
2022/08/04 04:40:14;;;;;;;2.20;2.10;;;19.70;99.90;;;;;;4974586;28;20400;-76
2022/08/04 04:42:54;;;;;;;3.53;2.63;;;19.70;99.90;;;;;;4975761;28;20468;-76
2022/08/04 04:45:32;;;;;;;2.40;2.20;;;19.80;99.90;;;;;;4976322;28;20485;-75
2022/08/04 04:48:16;;;;;;;3.03;2.80;;;20.00;99.90;;;;;;4975461;28;20494;-75
2022/08/04 04:50:58;;;;;;;3.20;2.40;;;20.20;99.90;;;;;;4975305;28;20411;-74
2022/08/04 04:54:05;;;;;;;3.07;2.70;;;20.40;99.90;;;;;;4974340;28;20428;-74
2022/08/04 04:56:39;;;;;;;3.03;1.90;;;20.70;99.90;;;;;;4974120;28;20415;-74
2022/08/04 04:59:10;;;;;;;3.53;2.70;;;20.80;99.90;;;;;;4974350;28;20386;-74
2022/08/04 05:02:17;;;;;;;2.93;2.50;;;21.00;99.90;;;;;;4974367;28;20375;-74
2022/08/04 05:05:00;;;;;;;2.70;2.50;;;21.20;99.90;;;;;;4974267;28;20451;-74
2022/08/04 05:07:35;;;;;;;2.43;2.23;;;21.40;99.90;;;;;;4976447;28;20471;-73
2022/08/04 05:10:26;;;;;;;2.27;2.07;;;21.40;99.90;;;;;;4976039;28;20766;-73
2022/08/04 05:13:27;;;;;;;2.60;2.40;;;21.40;99.90;;;;;;4956615;28;20430;-73
2022/08/04 05:15:56;;;;;;;3.17;2.23;;;21.50;99.90;;;;;;4961457;28;20427;-73
2022/08/04 05:18:29;;;;;;;2.50;2.30;;;21.60;99.90;;;;;;4975977;28;20382;-73
2022/08/04 05:21:04;;;;;;;2.70;2.27;;;21.60;99.90;;;;;;4975906;28;20412;-73
2022/08/04 05:23:36;;;;;;;2.73;2.53;;;21.60;99.90;;;;;;4975648;28;20488;-74
2022/08/04 05:26:09;;;;;;;2.43;2.23;;;21.70;99.90;;;;;;4976359;28;20676;-73
2022/08/04 05:28:40;;;;;;;3.53;2.37;;;21.70;99.90;;;;;;4976223;28;20414;-73
2022/08/04 05:31:20;;;;;;;3.40;3.10;;;21.80;99.90;;;;;;4975459;28;20394;-73
2022/08/04 05:33:58;;;;;;;2.10;2.00;;;22.00;99.90;;;;;;4975353;28;20798;-73
2022/08/04 05:36:34;;;;;;;3.27;2.97;;;22.10;99.40;;;;;;4975794;28;20468;-73
2022/08/04 05:39:01;;;;;;;3.50;2.40;;;22.10;99.80;;;;;;4978658;28;20395;-73
2022/08/04 05:41:28;;;;;;;2.23;2.10;;;22.20;99.30;;;;;;4994925;28;20414;-72
2022/08/04 05:43:57;;;;;;;2.90;2.60;;;22.20;99.40;;;;;;4994366;28;20462;-73
2022/08/04 05:46:24;;;;;;;2.20;2.00;;;22.20;99.40;;;;;;4974865;28;20411;-69
2022/08/04 05:48:51;;;;;;;2.10;2.00;;;22.30;99.20;;;;;;4975363;28;20740;-73
2022/08/04 05:51:17;;;;;;;2.47;2.17;;;22.30;99.10;;;;;;4971294;28;20423;-72
2022/08/04 05:53:43;;;;;;;2.60;2.40;;;22.40;99.00;;;;;;4955423;28;20527;-72
2022/08/04 05:56:12;;;;;;;2.67;2.33;;;22.50;99.40;;;;;;4955802;29;20420;-73
2022/08/04 05:58:39;;;;;;;2.17;2.07;;;22.60;99.50;;;;;;4956299;28;20400;-73
2022/08/04 06:01:09;;;;;;;2.60;2.40;;;22.70;98.70;;;;;;4974859;28;20406;-73
2022/08/04 06:03:36;;;;;;;5.50;2.50;;;22.80;98.60;;;;;;4979100;28;20443;-72
2022/08/04 06:06:03;;;;;;;2.50;2.30;;;23.00;98.50;;;;;;4980022;28;20926;-72
2022/08/04 06:08:30;;;;;;;2.67;2.47;;;23.10;98.30;;;;;;4994175;28;20748;-72
2022/08/04 06:10:58;;;;;;;2.83;2.23;;;23.10;98.00;;;;;;4988119;28;20864;-73
2022/08/04 06:13:36;;;;;;;2.70;2.50;;;23.20;97.70;;;;;;4988823;28;20848;-71
2022/08/04 06:16:06;;;;;;;2.40;2.20;;;23.40;97.70;;;;;;4993652;28;20476;-72
2022/08/04 06:18:35;;;;;;;2.30;2.20;;;23.40;97.20;;;;;;4974430;28;20570;-72
2022/08/04 06:21:02;;;;;;;2.77;2.67;;;23.60;97.00;;;;;;4977101;28;20396;-73
2022/08/04 06:23:30;;;;;;;2.67;2.47;;;23.80;97.30;;;;;;4993915;28;20832;-70
2022/08/04 06:25:59;;;;;;;4.80;2.40;;;24.00;97.10;;;;;;4993788;28;20398;-70
2022/08/04 06:28:27;;;;;;;3.40;2.20;;;24.20;96.70;;;;;;4989065;28;20394;-70
2022/08/04 06:30:54;;;;;;;2.37;2.20;;;24.30;96.30;;;;;;4974883;28;20729;-71
2022/08/04 06:33:32;;;;;;;2.20;2.10;;;24.40;96.60;;;;;;4974189;28;20948;-72
2022/08/04 06:36:04;;;;;;;2.73;2.53;;;24.50;96.10;;;;;;4978025;28;20389;-72
2022/08/04 06:38:32;;;;;;;2.97;2.73;;;24.60;95.80;;;;;;4976650;28;20809;-71
2022/08/04 06:41:02;;;;;;;2.70;2.50;;;24.80;95.60;;;;;;4973012;28;20402;-75
2022/08/04 06:43:28;;;;;;;2.23;2.13;;;25.00;95.30;;;;;;4972820;28;20474;-75
2022/08/04 06:45:56;;;;;;;2.73;2.53;;;25.20;94.10;;;;;;4974376;28;20394;-71
2022/08/04 06:48:22;;;;;;;2.40;2.20;;;25.30;93.80;;;;;;4987427;28;20880;-73
2022/08/04 06:50:49;;;;;;;2.23;2.13;;;25.50;93.60;;;;;;4993973;28;20382;-72
2022/08/04 06:53:16;;;;;;;1.90;1.80;;;25.70;93.30;;;;;;4976361;28;20491;-72
2022/08/04 06:55:44;;;;;;;2.40;2.20;;;25.80;92.80;;;;;;4982069;28;20983;-74
2022/08/04 06:58:11;;;;;;;1.87;1.77;;;26.00;92.60;;;;;;4993651;28;20418;-73
2022/08/04 07:00:39;;;;;;;2.33;2.23;;;26.10;91.90;;;;;;4994240;28;20728;-74
2022/08/04 07:03:06;;;;;;;2.40;2.30;;;26.30;91.50;;;;;;4996007;28;21046;-73
2022/08/04 07:05:33;;;;;;;1.97;1.87;;;26.40;91.50;;;;;;4992807;28;20417;-74
2022/08/04 07:07:59;;;;;;;2.83;2.70;;;26.50;90.80;;;;;;4978448;28;20823;-72
2022/08/04 07:10:29;;;;;;;1.93;1.67;;;26.70;90.10;;;;;;4978348;28;20383;-67
2022/08/04 07:13:00;;;;;;;2.80;2.47;;;26.90;89.00;;;;;;4978016;28;20403;-68
2022/08/04 07:15:26;;;;;;;1.83;1.73;;;27.00;88.80;;;;;;4978292;28;20900;-69
2022/08/04 07:17:53;;;;;;;2.20;2.10;;;27.10;88.20;;;;;;4978435;28;20837;-68
2022/08/04 07:20:20;;;;;;;1.90;1.80;;;27.20;87.40;;;;;;4977967;28;20419;-68
2022/08/04 07:22:48;;;;;;;1.90;1.80;;;27.40;88.20;;;;;;4977784;28;20452;-68
2022/08/04 07:25:14;;;;;;;2.70;2.33;;;27.60;85.80;;;;;;4977955;28;20409;-69
2022/08/04 07:27:41;;;;;;;1.90;1.80;;;27.70;85.00;;;;;;4978012;28;20376;-67
2022/08/04 07:30:08;;;;;;;2.00;1.90;;;27.80;85.00;;;;;;4978039;28;20409;-69
2022/08/04 07:32:33;;;;;;;6.23;2.30;;;27.90;85.00;;;;;;4977746;28;20489;-68
2022/08/04 07:35:00;;;;;;;3.77;2.33;;;28.00;84.60;;;;;;4977664;28;20867;-69
2022/08/04 07:37:26;;;;;;;2.17;2.07;;;28.30;83.90;;;;;;4978045;28;20816;-68
2022/08/04 07:39:52;;;;;;;2.37;2.27;;;28.50;82.60;;;;;;4977716;28;20415;-69
2022/08/04 07:42:19;;;;;;;2.63;2.03;;;28.80;81.90;;;;;;4977362;28;20234;-69
2022/08/04 07:44:45;;;;;;;1.50;1.40;;;29.00;80.90;;;;;;4977159;28;20283;-68
2022/08/04 07:47:11;;;;;;;2.10;2.00;;;29.20;80.00;;;;;;4977388;28;20402;-69
2022/08/04 07:49:37;;;;;;;2.13;2.03;;;29.60;78.10;;;;;;4976961;28;20433;-67
2022/08/04 07:52:05;;;;;;;2.27;2.17;;;30.20;77.00;;;;;;4977473;28;20486;-68
2022/08/04 07:54:32;;;;;;;3.73;2.33;;;31.10;75.90;;;;;;4977033;28;20196;-69
2022/08/04 07:56:58;;;;;;;2.00;1.90;;;32.20;70.30;;;;;;4977318;28;20510;-69
2022/08/04 07:59:24;;;;;;;2.40;2.30;;;33.40;68.60;;;;;;4977443;28;20753;-70
2022/08/04 08:01:50;;;;;;;2.60;2.47;;;34.60;63.20;;;;;;4977582;28;20407;-70
2022/08/04 08:04:16;;;;;;;2.70;2.50;;;35.80;60.50;;;;;;4976551;28;20467;-67
2022/08/04 08:06:42;;;;;;;2.43;2.33;;;36.70;58.10;;;;;;4977575;28;20466;-66
2022/08/04 08:09:13;;;;;;;4.50;2.53;;;37.60;55.60;;;;;;4977458;28;20462;-66
2022/08/04 08:11:45;;;;;;;2.17;2.07;;;38.80;53.90;;;;;;4977453;28;20418;-66
2022/08/04 08:14:12;;;;;;;2.20;2.10;;;39.90;51.50;;;;;;4975915;28;20925;-68
2022/08/04 08:16:37;;;;;;;2.00;1.90;;;41.10;49.00;;;;;;4976559;28;20518;-66
2022/08/04 08:19:03;;;;;;;1.97;1.87;;;42.00;47.60;;;;;;4977315;28;20510;-66
2022/08/04 08:21:29;;;;;;;2.20;2.10;;;42.70;45.90;;;;;;4977116;28;20545;-68
2022/08/04 08:23:55;;;;;;;2.33;2.13;;;43.30;45.20;;;;;;4976860;28;20486;-68
2022/08/04 08:26:21;;;;;;;2.33;2.23;;;43.70;44.00;;;;;;4975743;28;20172;-67
2022/08/04 08:28:47;;;;;;;2.40;2.30;;;44.00;42.80;;;;;;4976669;28;20894;-67
2022/08/04 08:31:12;;;;;;;2.80;2.60;;;44.40;42.10;;;;;;4976879;28;20187;-68
2022/08/04 08:33:38;;;;;;;2.20;2.10;;;44.60;41.00;;;;;;4976489;28;20272;-67
2022/08/04 08:36:14;;;;;;;2.33;2.23;;;45.00;40.90;;;;;;4976994;28;20520;-67
2022/08/04 08:38:50;;;;;;;2.20;2.10;;;45.20;40.30;;;;;;4977000;28;20470;-67
2022/08/04 08:41:50;;;;;;;2.60;2.50;;;45.50;39.90;;;;;;4976790;28;20395;-68
2022/08/04 08:44:49;;;;;;;2.53;2.43;;;45.40;39.50;;;;;;4975813;28;20464;-67
2022/08/04 08:47:34;;;;;;;3.40;2.60;;;44.90;39.40;;;;;;4975444;28;20415;-66
2022/08/04 08:50:33;;;;;;;2.40;2.30;;;45.00;39.70;;;;;;4957459;29;20787;-67
2022/08/04 08:53:37;;;;;;;2.63;2.53;;;45.40;38.80;;;;;;4956934;28;20839;-68
2022/08/04 08:56:42;;;;;;;2.90;2.80;;;45.50;39.30;;;;;;4956596;29;20469;-67
2022/08/04 08:59:26;;;;;;;3.00;2.90;;;45.90;38.80;;;;;;4967524;28;20454;-68
2022/08/04 09:01:54;;;;;;;3.05;2.85;;;46.30;38.30;;;;;;4976591;28;20426;-69
2022/08/04 09:04:59;;;;;;;2.80;2.70;;;46.00;38.20;;;;;;4975838;28;20574;-68
2022/08/04 09:07:53;;;;;;;2.95;2.85;;;45.70;38.10;;;;;;4976294;28;20295;-69
2022/08/04 09:10:23;;;;;;;3.25;3.05;;;46.10;38.30;;;;;;4976131;28;20646;-68
2022/08/04 09:12:54;;;;;;;3.10;3.00;;;46.60;37.30;;;;;;4975773;28;20234;-67
2022/08/04 09:15:29;;;;;;;3.05;2.95;;;47.10;35.40;;;;;;4976231;28;20635;-67
2022/08/04 09:18:21;;;;;;;3.13;2.83;;;47.50;35.00;;;;;;4974995;28;20270;-69
2022/08/04 09:20:52;;;;;;;3.17;3.08;;;48.10;34.60;;;;;;4976426;28;20214;-69
2022/08/04 09:23:46;;;;;;;3.05;2.90;;;48.40;33.90;;;;;;4975565;28;20380;-68
2022/08/04 09:26:20;;;;;;;3.10;3.00;;;48.30;33.70;;;;;;4976071;28;20278;-69
2022/08/04 09:28:51;;;;;;;3.05;2.95;;;48.10;34.10;;;;;;4975623;28;20230;-69
2022/08/04 09:31:23;;;;;;;3.42;3.33;;;47.70;34.20;;;;;;4974729;28;20180;-70
2022/08/04 09:34:14;;;;;;;2.90;2.80;;;47.40;34.30;;;;;;4975463;28;20207;-69
2022/08/04 09:36:48;;;;;;;2.83;2.72;;;47.50;34.10;;;;;;4975851;28;20168;-70
2022/08/04 09:39:31;;;;;;;3.05;2.95;;;47.30;34.30;;;;;;4975905;28;20191;-69
2022/08/04 09:42:08;;;;;;;2.85;2.85;;;47.00;34.50;;;;;;4975581;28;20207;-69
2022/08/04 09:44:53;;;;;;;3.33;3.22;;;46.90;34.90;;;;;;4975596;28;20657;-68
2022/08/04 09:47:18;;;;;;;3.78;3.67;;;46.90;35.00;;;;;;4975761;28;20176;-68
2022/08/04 09:49:56;;;;;;;3.70;3.60;;;47.20;33.80;;;;;;4975388;28;20172;-69
2022/08/04 09:52:49;;;;;;;3.80;3.70;;;47.40;33.70;;;;;;4975246;28;20187;-70
2022/08/04 09:55:23;;;;;;;4.00;3.90;;;47.60;33.70;;;;;;4974979;28;20192;-69
2022/08/04 09:58:10;;;;;;;4.10;4.00;;;47.60;34.10;;;;;;4974122;28;20677;-70
2022/08/04 10:00:44;;;;;;;4.50;4.40;;;47.90;34.00;;;;;;4975549;28;20168;-70
2022/08/04 10:03:12;;;;;;;5.10;4.90;;;48.30;33.80;;;;;;4974901;28;20172;-67
2022/08/04 10:05:56;;;;;;;5.50;5.30;;;48.60;33.40;;;;;;4975058;28;20246;-69
2022/08/04 10:08:43;;;;;;;5.57;5.38;;;48.60;33.00;;;;;;4975364;28;20180;-68
2022/08/04 10:11:20;;;;;;;5.75;5.55;;;48.80;33.10;;;;;;4974413;28;20175;-69
2022/08/04 10:14:05;;;;;;;5.78;5.57;;;49.20;32.70;;;;;;4974225;28;20273;-70
2022/08/04 10:16:54;;;;;;;5.32;5.22;;;49.50;32.50;;;;;;4975232;28;20178;-69
2022/08/04 10:19:26;;;;;;;5.43;5.22;;;49.60;32.00;;;;;;4975047;28;20176;-69
2022/08/04 10:22:07;;;;;;;5.70;5.50;;;49.30;32.60;;;;;;4974517;28;20168;-69
2022/08/04 10:24:51;;;;;;;4.93;4.82;;;49.30;31.60;;;;;;4974691;28;20187;-68
2022/08/04 10:27:35;;;;;;;4.50;4.40;;;49.00;31.60;;;;;;4975268;28;20258;-69
2022/08/04 10:30:10;;;;;;;4.22;4.03;;;48.60;31.90;;;;;;4975177;28;20250;-68
2022/08/04 10:32:52;;;;;;;3.28;3.17;;;48.10;31.80;;;;;;4974644;28;20282;-68
2022/08/04 10:35:22;;;;;;;3.55;3.30;;;47.60;32.30;;;;;;4974491;28;20207;-68
2022/08/04 10:38:21;;;;;;;3.13;2.93;;;47.30;32.10;;;;;;4974674;28;20522;-69
2022/08/04 10:40:59;;;;;;;2.77;2.67;;;46.60;32.00;;;;;;4974809;28;20412;-69
2022/08/04 10:43:46;;;;;;;3.07;2.60;;;46.00;32.60;;;;;;4974242;28;20797;-67
2022/08/04 10:46:25;;;;;;;2.80;2.70;;;45.50;32.70;;;;;;4974349;28;20430;-68
2022/08/04 10:49:14;;;;;;;2.60;2.50;;;45.50;32.60;;;;;;4974698;28;20399;-68
2022/08/04 10:51:58;;;;;;;2.77;2.67;;;45.40;33.00;;;;;;4974809;28;20414;-69
2022/08/04 10:54:42;;;;;;;3.30;3.00;;;45.10;33.40;;;;;;4973943;28;20542;-68
2022/08/04 10:57:13;;;;;;;2.87;2.77;;;44.90;33.80;;;;;;4974745;28;20413;-69
2022/08/04 10:59:51;;;;;;;2.73;2.63;;;44.90;33.50;;;;;;4974733;28;20454;-68
2022/08/04 11:02:36;;;;;;;2.30;2.20;;;44.60;33.70;;;;;;4973870;28;20435;-68
2022/08/04 11:05:30;;;;;;;2.33;2.23;;;44.00;34.00;;;;;;4973147;28;20795;-68
2022/08/04 11:08:10;;;;;;;2.23;2.13;;;43.30;34.40;;;;;;4974648;28;20790;-68
2022/08/04 11:10:44;;;;;;;2.10;2.00;;;43.40;34.70;;;;;;4974388;28;20400;-68
2022/08/04 11:13:12;;;;;;;2.60;2.50;;;43.70;34.70;;;;;;4974294;28;20436;-68
2022/08/04 11:15:45;;;;;;;2.47;2.37;;;43.70;34.10;;;;;;4974008;28;20431;-70
2022/08/04 11:18:24;;;;;;;2.13;2.03;;;43.20;34.90;;;;;;4974109;28;20518;-68
2022/08/04 11:21:00;;;;;;;2.60;2.40;;;42.70;35.40;;;;;;4974515;28;20407;-69
2022/08/04 11:23:35;;;;;;;2.60;2.40;;;42.20;35.20;;;;;;4973878;28;20438;-69
2022/08/04 11:26:14;;;;;;;2.50;2.30;;;41.60;35.50;;;;;;4974462;28;20407;-68
2022/08/04 11:28:54;;;;;;;2.20;2.10;;;40.50;36.00;;;;;;4974154;28;20518;-68
2022/08/04 11:31:26;;;;;;;2.10;2.00;;;39.60;37.20;;;;;;4974319;28;20905;-68
2022/08/04 11:34:23;;;;;;;2.00;1.90;;;38.80;37.70;;;;;;4973672;28;20467;-69
2022/08/04 11:37:14;;;;;;;1.90;1.80;;;38.10;38.50;;;;;;4955145;28;20392;-68
2022/08/04 11:40:10;;;;;;;2.70;2.50;;;37.60;39.20;;;;;;4954804;28;20408;-67
2022/08/04 11:42:39;;;;;;;2.43;2.23;;;37.20;40.40;;;;;;4954553;28;20390;-67
2022/08/04 11:45:15;;;;;;;3.10;2.90;;;36.90;40.40;;;;;;4967333;28;20505;-66
2022/08/04 11:47:49;;;;;;;2.70;2.50;;;36.70;40.40;;;;;;4974336;28;20790;-67
2022/08/04 11:50:22;;;;;;;2.40;2.20;;;36.60;40.80;;;;;;4977983;28;20381;-69
2022/08/04 11:52:48;;;;;;;2.33;2.20;;;36.50;40.80;;;;;;4977305;28;20434;-69
2022/08/04 11:55:18;;;;;;;1.93;1.83;;;36.40;40.90;;;;;;4977737;28;20440;-68
2022/08/04 11:57:43;;;;;;;4.50;2.83;;;36.20;41.00;;;;;;4977654;28;20422;-69
2022/08/04 12:00:13;;;;;;;2.80;2.60;;;36.20;41.50;;;;;;4977161;28;20539;-68
2022/08/04 12:02:50;;;;;;;2.43;2.30;;;36.10;41.30;;;;;;4977125;28;20176;-68
2022/08/04 12:05:26;;;;;;;2.53;2.20;;;36.00;41.50;;;;;;4977383;28;20926;-70
2022/08/04 12:08:18;;;;;;;2.80;2.50;;;36.00;41.30;;;;;;4977682;28;20378;-68
2022/08/04 12:10:53;;;;;;;2.37;2.17;;;36.00;41.50;;;;;;4977164;28;20416;-71
2022/08/04 12:13:21;;;;;;;2.50;2.40;;;35.90;41.60;;;;;;4975297;28;20496;-70
2022/08/04 12:16:06;;;;;;;2.67;2.47;;;35.90;41.90;;;;;;4977311;28;20386;-69
2022/08/04 12:18:53;;;;;;;2.20;2.00;;;35.90;42.00;;;;;;4977164;28;20468;-69
2022/08/04 12:21:28;;;;;;;2.40;2.30;;;36.00;41.70;;;;;;4976845;28;20477;-67
2022/08/04 12:24:01;;;;;;;1.90;1.70;;;36.00;42.50;;;;;;4976570;28;20494;-70
2022/08/04 12:26:33;;;;;;;2.90;2.70;;;36.00;42.10;;;;;;4977262;28;20746;-71
2022/08/04 12:29:00;;;;;;;2.50;2.40;;;36.10;41.80;;;;;;4977183;28;20923;-70
2022/08/04 12:31:31;;;;;;;2.30;2.20;;;36.10;41.50;;;;;;4977147;28;20390;-69
2022/08/04 12:34:11;;;;;;;2.20;2.10;;;36.10;42.00;;;;;;4976701;28;20450;-70
2022/08/04 12:36:43;;;;;;;2.53;2.33;;;36.20;42.70;;;;;;4976615;28;20434;-69
2022/08/04 12:39:16;;;;;;;1.93;1.83;;;36.30;41.50;;;;;;4977009;28;20470;-72
2022/08/04 12:42:06;;;;;;;2.70;1.90;;;36.20;41.10;;;;;;4976842;28;20382;-69
2022/08/04 12:44:37;;;;;;;2.17;1.97;;;36.20;41.30;;;;;;4976345;28;20490;-68
2022/08/04 12:47:07;;;;;;;2.10;2.00;;;36.10;41.90;;;;;;4976639;28;20390;-68
2022/08/04 12:49:36;;;;;;;2.23;2.13;;;36.10;42.20;;;;;;4976742;28;20431;-69
2022/08/04 12:52:06;;;;;;;2.30;2.20;;;36.30;42.60;;;;;;4976714;28;20397;-68
2022/08/04 12:54:34;;;;;;;2.03;1.93;;;36.50;42.70;;;;;;4975996;28;20538;-69
2022/08/04 12:57:03;;;;;;;3.20;2.27;;;36.60;41.70;;;;;;4976704;28;20462;-68
2022/08/04 12:59:29;;;;;;;2.33;2.13;;;36.80;41.70;;;;;;4976093;28;20495;-67
2022/08/04 13:01:56;;;;;;;2.43;2.23;;;36.80;40.90;;;;;;4976254;28;20495;-69
2022/08/04 13:04:26;;;;;;;2.70;2.50;;;36.80;41.30;;;;;;4975662;28;20220;-69
2022/08/04 13:07:06;;;;;;;2.77;2.57;;;36.80;41.70;;;;;;4976383;28;20392;-69
2022/08/04 13:09:33;;;;;;;2.70;2.50;;;36.80;41.90;;;;;;4976497;28;20394;-69
2022/08/04 13:12:10;;;;;;;2.70;2.50;;;36.90;41.30;;;;;;4976333;28;20420;-69
2022/08/04 13:14:38;;;;;;;2.20;2.10;;;36.90;41.80;;;;;;4976168;28;20481;-68
2022/08/04 13:17:05;;;;;;;2.30;2.20;;;36.90;41.80;;;;;;4976269;28;20473;-69
2022/08/04 13:19:31;;;;;;;3.57;2.90;;;36.80;41.80;;;;;;4975874;28;20402;-69
2022/08/04 13:21:59;;;;;;;1.87;1.77;;;36.80;42.10;;;;;;4976019;28;20438;-69
2022/08/04 13:24:26;;;;;;;2.67;2.47;;;36.80;41.60;;;;;;4975688;28;20493;-68
2022/08/04 13:26:59;;;;;;;2.90;2.70;;;36.80;41.70;;;;;;4975758;28;20436;-68
2022/08/04 13:29:36;;;;;;;2.63;2.50;;;36.80;42.00;;;;;;4976112;28;20378;-68
2022/08/04 13:32:03;;;;;;;2.70;2.60;;;36.90;42.10;;;;;;4976029;28;20443;-68
2022/08/04 13:34:31;;;;;;;3.20;3.00;;;36.90;42.30;;;;;;4975137;28;20869;-68
2022/08/04 13:36:58;;;;;;;2.33;2.20;;;37.00;41.50;;;;;;4975894;28;20465;-68
2022/08/04 13:39:24;;;;;;;2.63;2.43;;;37.00;41.30;;;;;;4975810;28;20382;-69
2022/08/04 13:41:54;;;;;;;2.50;2.30;;;36.90;41.20;;;;;;4975879;28;20513;-68
2022/08/04 13:44:24;;;;;;;2.40;2.30;;;36.90;41.70;;;;;;4975218;28;20418;-68
2022/08/04 13:46:54;;;;;;;2.60;2.50;;;37.00;41.90;;;;;;4976227;28;20419;-68
2022/08/04 13:49:20;;;;;;;2.23;2.13;;;36.90;40.90;;;;;;4975536;28;20506;-69
2022/08/04 13:51:51;;;;;;;2.47;2.37;;;36.80;41.10;;;;;;4975501;28;20907;-68
2022/08/04 13:54:17;;;;;;;2.87;2.67;;;36.70;41.90;;;;;;4974950;28;20452;-68
2022/08/04 13:56:47;;;;;;;2.40;2.27;;;36.80;42.20;;;;;;4975649;28;20408;-69
2022/08/04 13:59:16;;;;;;;2.90;2.70;;;36.70;41.40;;;;;;4975447;28;20453;-68
2022/08/04 14:01:45;;;;;;;2.60;2.40;;;36.70;41.10;;;;;;4974895;28;20423;-68
2022/08/04 14:04:20;;;;;;;3.10;2.90;;;36.60;41.00;;;;;;4974940;28;20483;-68
2022/08/04 14:06:52;;;;;;;2.87;2.67;;;36.40;41.30;;;;;;4975404;28;20393;-69
2022/08/04 14:09:21;;;;;;;2.77;2.63;;;36.30;41.30;;;;;;4975289;28;20416;-68
2022/08/04 14:12:03;;;;;;;2.80;2.60;;;36.30;41.80;;;;;;4974396;28;20412;-69
2022/08/04 14:14:34;;;;;;;2.70;2.50;;;36.20;41.70;;;;;;4974644;28;20494;-68
2022/08/04 14:17:11;;;;;;;2.47;2.33;;;36.10;41.50;;;;;;4974872;28;20401;-68
2022/08/04 14:19:46;;;;;;;2.73;2.53;;;36.10;41.50;;;;;;4975358;28;20403;-69
2022/08/04 14:22:33;;;;;;;2.93;2.60;;;36.20;41.30;;;;;;4974855;28;20398;-68
2022/08/04 14:25:04;;;;;;;4.07;3.77;;;36.10;41.90;;;;;;4974769;28;20458;-70
2022/08/04 14:27:54;;;;;;;3.27;3.07;;;36.00;41.70;;;;;;4974736;28;20522;-69
2022/08/04 14:30:26;;;;;;;2.17;2.07;;;35.90;42.00;;;;;;4974954;28;20382;-67
2022/08/04 14:32:57;;;;;;;2.43;2.23;;;35.90;41.70;;;;;;4974407;28;20429;-71
2022/08/04 14:35:23;;;;;;;2.70;2.40;;;35.90;41.80;;;;;;4975048;28;20374;-70
2022/08/04 14:37:57;;;;;;;2.70;2.50;;;35.90;41.90;;;;;;4974952;28;20385;-69
2022/08/04 14:40:28;;;;;;;3.80;2.70;;;35.90;42.30;;;;;;4974973;28;20411;-69
2022/08/04 14:42:56;;;;;;;4.30;2.87;;;35.90;42.70;;;;;;4973893;28;20796;-69
2022/08/04 14:45:42;;;;;;;2.50;2.30;;;35.90;41.80;;;;;;4955485;28;20431;-69
2022/08/04 14:48:10;;;;;;;2.20;2.10;;;35.90;42.20;;;;;;4955532;28;20798;-70
2022/08/04 14:50:42;;;;;;;3.03;2.73;;;35.90;42.90;;;;;;4957725;28;20387;-69
2022/08/04 14:53:10;;;;;;;2.70;2.50;;;35.90;43.70;;;;;;4973835;28;20430;-68
2022/08/04 14:55:37;;;;;;;2.77;2.47;;;35.80;42.30;;;;;;4974574;28;20371;-69
2022/08/04 14:58:04;;;;;;;2.43;2.33;;;35.80;42.30;;;;;;4974486;28;20416;-68
2022/08/04 15:00:33;;;;;;;8.90;2.43;;;35.80;42.50;;;;;;4974738;28;20736;-69
2022/08/04 15:03:07;;;;;;;3.70;3.40;;;35.80;42.40;;;;;;4973958;28;20464;-69
2022/08/04 15:05:34;;;;;;;3.10;2.90;;;35.70;42.80;;;;;;4974440;28;20940;-68
2022/08/04 15:08:00;;;;;;;2.50;2.40;;;35.60;43.00;;;;;;4974801;28;20481;-68
2022/08/04 15:10:27;;;;;;;2.77;2.57;;;35.60;42.80;;;;;;4974602;28;20449;-69
2022/08/04 15:12:54;;;;;;;3.33;3.10;;;35.60;42.70;;;;;;4974000;28;20486;-68
2022/08/04 15:15:20;;;;;;;2.97;2.77;;;35.60;42.80;;;;;;4974444;28;20478;-68
2022/08/04 15:17:46;;;;;;;2.83;2.63;;;35.70;42.90;;;;;;4974244;28;20498;-69
2022/08/04 15:20:12;;;;;;;2.90;2.70;;;35.70;43.10;;;;;;4974519;28;20432;-68
2022/08/04 15:22:38;;;;;;;2.90;2.70;;;35.80;43.10;;;;;;4975441;28;20174;-68
2022/08/04 15:25:05;;;;;;;2.97;2.77;;;35.80;43.60;;;;;;4978104;28;20481;-68
2022/08/04 15:27:34;;;;;;;2.57;2.37;;;35.80;43.40;;;;;;4978223;28;20169;-68
2022/08/04 15:30:09;;;;;;;2.90;2.70;;;35.80;43.50;;;;;;4978487;28;20402;-68
2022/08/04 15:32:38;;;;;;;2.97;2.70;;;35.80;43.30;;;;;;4977351;28;20733;-68
2022/08/04 15:35:16;;;;;;;3.43;3.13;;;35.80;43.10;;;;;;4978101;28;20390;-69
2022/08/04 15:37:45;;;;;;;2.57;2.47;;;35.80;43.20;;;;;;4978515;28;20399;-68
2022/08/04 15:40:38;;;;;;;2.50;2.40;;;35.70;42.60;;;;;;4978186;28;20443;-69
2022/08/04 15:43:41;;;;;;;2.90;2.70;;;35.70;43.10;;;;;;4977553;28;20401;-68
2022/08/04 15:46:07;;;;;;;2.47;2.33;;;35.60;43.40;;;;;;4977451;28;20739;-68
2022/08/04 15:48:33;;;;;;;2.57;2.37;;;35.60;43.30;;;;;;4977779;28;20389;-68
2022/08/04 15:51:02;;;;;;;2.73;2.53;;;35.60;43.00;;;;;;4977782;28;20658;-68
2022/08/04 15:53:41;;;;;;;2.57;2.47;;;35.50;43.10;;;;;;4977074;28;20951;-70
2022/08/04 15:56:22;;;;;;;2.50;2.40;;;35.60;43.60;;;;;;4977740;28;20546;-69
2022/08/04 15:58:50;;;;;;;2.63;2.47;;;35.50;43.30;;;;;;4977473;28;20408;-69
2022/08/04 16:01:17;;;;;;;2.90;2.70;;;35.50;43.60;;;;;;4977380;28;20782;-68
2022/08/04 16:03:53;;;;;;;3.20;3.00;;;35.50;43.60;;;;;;4976959;28;20450;-69
2022/08/04 16:06:21;;;;;;;2.90;2.70;;;35.50;43.70;;;;;;4977793;28;20405;-70
2022/08/04 16:08:49;;;;;;;2.97;2.77;;;35.40;43.40;;;;;;4977648;28;20378;-69
2022/08/04 16:11:24;;;;;;;2.87;2.67;;;35.40;43.20;;;;;;4975535;28;20416;-70
2022/08/04 16:14:02;;;;;;;2.80;2.60;;;35.30;43.30;;;;;;4976674;28;20557;-66
2022/08/04 16:16:30;;;;;;;3.10;2.90;;;35.30;43.60;;;;;;4976852;28;20442;-67
2022/08/04 16:19:24;;;;;;;2.40;2.30;;;35.30;43.80;;;;;;4976939;28;20398;-67
2022/08/04 16:21:54;;;;;;;2.93;2.77;;;35.20;43.90;;;;;;4950601;28;20390;-64
2022/08/04 16:24:34;;;;;;;3.10;2.90;;;35.10;44.10;;;;;;4976537;28;20419;-67
2022/08/04 16:27:10;;;;;;;4.73;3.53;;;35.10;44.10;;;;;;4976293;28;20386;-65
2022/08/04 16:29:38;;;;;;;3.20;2.90;;;35.10;43.70;;;;;;4976691;28;20770;-65
2022/08/04 16:32:03;;;;;;;3.23;3.03;;;35.00;43.60;;;;;;4976878;28;20408;-65
2022/08/04 16:34:48;;;;;;;2.87;2.67;;;35.00;43.80;;;;;;4975760;28;20959;-65
2022/08/04 16:37:14;;;;;;;3.10;2.90;;;34.90;43.60;;;;;;4976839;28;20636;-66
2022/08/04 16:39:40;;;;;;;3.30;3.00;;;34.80;43.80;;;;;;4976969;28;20528;-64
2022/08/04 16:42:32;;;;;;;3.47;2.80;;;34.90;44.30;;;;;;4976631;28;20416;-67
2022/08/04 16:45:07;;;;;;;2.60;2.50;;;34.80;43.90;;;;;;4976112;28;20942;-65
2022/08/04 16:47:48;;;;;;;3.20;3.00;;;34.80;44.00;;;;;;4976798;28;20374;-65
2022/08/04 16:50:15;;;;;;;2.83;2.63;;;34.70;43.70;;;;;;4976532;28;20410;-66
2022/08/04 16:52:43;;;;;;;3.20;3.00;;;34.70;43.90;;;;;;4976094;28;20834;-67
2022/08/04 16:55:09;;;;;;;3.10;2.90;;;34.70;44.20;;;;;;4975987;28;20433;-66
2022/08/04 16:57:35;;;;;;;3.03;2.73;;;34.70;43.90;;;;;;4976464;28;20921;-66
2022/08/04 17:00:01;;;;;;;3.20;3.00;;;34.60;44.10;;;;;;4976323;28;20183;-68
2022/08/04 17:02:27;;;;;;;4.10;3.23;;;34.60;44.00;;;;;;4976065;28;20741;-65
2022/08/04 17:04:53;;;;;;;3.60;3.40;;;34.60;44.10;;;;;;4974838;28;20472;-66
2022/08/04 17:07:18;;;;;;;2.70;2.60;;;34.60;44.10;;;;;;4976439;28;20176;-66
2022/08/04 17:09:50;;;;;;;3.27;2.97;;;34.70;43.90;;;;;;4975833;28;20732;-65
2022/08/04 17:12:16;;;;;;;3.03;2.83;;;34.70;43.80;;;;;;4976018;28;20172;-65
2022/08/04 17:14:42;;;;;;;2.93;2.73;;;34.60;44.40;;;;;;4975932;28;20940;-70
2022/08/04 17:17:09;;;;;;;2.60;2.50;;;34.60;43.90;;;;;;4976037;28;20180;-65
2022/08/04 17:19:35;;;;;;;2.67;2.50;;;34.60;44.00;;;;;;4976073;28;20180;-66
2022/08/04 17:22:08;;;;;;;3.33;3.03;;;34.50;44.00;;;;;;4975899;28;20405;-66
2022/08/04 17:24:37;;;;;;;7.50;3.00;;;34.50;44.10;;;;;;4974509;28;20505;-66
2022/08/04 17:27:03;;;;;;;3.03;2.80;;;34.40;44.00;;;;;;4976154;28;20753;-66
2022/08/04 17:29:29;;;;;;;2.63;2.43;;;34.30;44.30;;;;;;4976080;28;20404;-65